sensor_id;sensor_type;location;lat;lon;timestamp;pressure;altitude;pressure_sealevel;temperature;humidity
45129;BME280;35512;56.312;101.728;2022-08-04T00:01:41;96112.47;;;14.87;73.19
45129;BME280;35512;56.312;101.728;2022-08-04T00:04:37;96112.03;;;14.93;73.01
45129;BME280;35512;56.312;101.728;2022-08-04T00:07:25;96107.72;;;15.02;72.83
45129;BME280;35512;56.312;101.728;2022-08-04T00:10:16;96101.41;;;15.13;72.88
45129;BME280;35512;56.312;101.728;2022-08-04T00:12:50;96108.72;;;15.23;73.01
45129;BME280;35512;56.312;101.728;2022-08-04T00:15:20;96101.66;;;15.33;72.49
45129;BME280;35512;56.312;101.728;2022-08-04T00:17:59;96102.72;;;15.43;72.53
45129;BME280;35512;56.312;101.728;2022-08-04T00:20:31;96097.22;;;15.50;72.32
45129;BME280;35512;56.312;101.728;2022-08-04T00:23:03;96088.22;;;15.57;72.17
45129;BME280;35512;56.312;101.728;2022-08-04T00:25:37;96092.78;;;15.67;72.12
45129;BME280;35512;56.312;101.728;2022-08-04T00:28:07;96100.88;;;15.78;72.18
45129;BME280;35512;56.312;101.728;2022-08-04T00:30:36;96101.13;;;15.91;72.21
45129;BME280;35512;56.312;101.728;2022-08-04T00:33:08;96106.75;;;16.11;71.62
45129;BME280;35512;56.312;101.728;2022-08-04T00:35:38;96092.31;;;16.14;70.96
45129;BME280;35512;56.312;101.728;2022-08-04T00:38:07;96110.56;;;16.17;70.87
45129;BME280;35512;56.312;101.728;2022-08-04T00:43:31;96099.75;;;16.13;71.00
45129;BME280;35512;56.312;101.728;2022-08-04T00:46:38;96111.69;;;16.23;70.79
45129;BME280;35512;56.312;101.728;2022-08-04T00:49:30;96110.94;;;16.19;70.37
45129;BME280;35512;56.312;101.728;2022-08-04T00:55:25;96119.13;;;15.77;70.65
45129;BME280;35512;56.312;101.728;2022-08-04T01:03:29;96111.38;;;16.79;69.29
45129;BME280;35512;56.312;101.728;2022-08-04T01:12:07;96112.94;;;18.02;67.14
45129;BME280;35512;56.312;101.728;2022-08-04T01:14:57;96113.81;;;18.39;66.15
45129;BME280;35512;56.312;101.728;2022-08-04T01:18:04;96113.84;;;18.76;65.58
45129;BME280;35512;56.312;101.728;2022-08-04T01:26:49;96106.13;;;19.73;64.25
45129;BME280;35512;56.312;101.728;2022-08-04T01:29:43;96117.84;;;20.07;63.80
45129;BME280;35512;56.312;101.728;2022-08-04T01:32:45;96108.59;;;20.30;63.68
45129;BME280;35512;56.312;101.728;2022-08-04T01:35:23;96110.16;;;20.57;62.95
45129;BME280;35512;56.312;101.728;2022-08-04T01:38:25;96103.09;;;21.37;61.66
45129;BME280;35512;56.312;101.728;2022-08-04T01:40:59;96092.13;;;22.29;60.18
45129;BME280;35512;56.312;101.728;2022-08-04T01:43:32;96098.78;;;23.26;59.19
45129;BME280;35512;56.312;101.728;2022-08-04T01:46:04;96098.16;;;24.18;58.51
45129;BME280;35512;56.312;101.728;2022-08-04T01:48:37;96094.91;;;25.42;57.73
45129;BME280;35512;56.312;101.728;2022-08-04T01:51:08;96090.34;;;26.42;56.89
45129;BME280;35512;56.312;101.728;2022-08-04T01:53:41;96095.59;;;27.50;55.67
45129;BME280;35512;56.312;101.728;2022-08-04T01:56:11;96108.91;;;28.55;54.02
45129;BME280;35512;56.312;101.728;2022-08-04T01:58:40;96094.16;;;29.33;52.30
45129;BME280;35512;56.312;101.728;2022-08-04T02:01:12;96099.03;;;29.93;51.00
45129;BME280;35512;56.312;101.728;2022-08-04T02:03:44;96093.56;;;30.32;49.75
45129;BME280;35512;56.312;101.728;2022-08-04T02:06:51;96093.91;;;30.91;48.69
45129;BME280;35512;56.312;101.728;2022-08-04T02:17:50;96085.31;;;32.46;45.70
45129;BME280;35512;56.312;101.728;2022-08-04T02:23:15;96081.69;;;32.57;43.18
45129;BME280;35512;56.312;101.728;2022-08-04T02:25:52;96081.16;;;32.95;42.29
45129;BME280;35512;56.312;101.728;2022-08-04T02:34:14;96078.09;;;33.97;41.18
45129;BME280;35512;56.312;101.728;2022-08-04T02:36:47;96067.31;;;34.20;39.66
45129;BME280;35512;56.312;101.728;2022-08-04T02:39:20;96073.59;;;34.65;39.06
45129;BME280;35512;56.312;101.728;2022-08-04T02:41:51;96075.47;;;34.76;38.20
45129;BME280;35512;56.312;101.728;2022-08-04T02:44:22;96071.31;;;34.82;37.97
45129;BME280;35512;56.312;101.728;2022-08-04T02:46:54;96078.66;;;34.66;36.75
45129;BME280;35512;56.312;101.728;2022-08-04T02:49:23;96065.66;;;34.50;36.50
45129;BME280;35512;56.312;101.728;2022-08-04T02:52:01;96070.06;;;35.10;36.14
45129;BME280;35512;56.312;101.728;2022-08-04T02:54:34;96066.00;;;35.65;34.74
45129;BME280;35512;56.312;101.728;2022-08-04T02:57:08;96052.63;;;35.58;32.62
45129;BME280;35512;56.312;101.728;2022-08-04T02:59:59;96057.84;;;33.85;32.92
45129;BME280;35512;56.312;101.728;2022-08-04T03:05:12;96056.53;;;32.93;34.94
45129;BME280;35512;56.312;101.728;2022-08-04T03:08:12;96059.00;;;33.96;33.97
45129;BME280;35512;56.312;101.728;2022-08-04T03:11:04;96054.28;;;34.61;32.86
45129;BME280;35512;56.312;101.728;2022-08-04T03:22:35;96045.56;;;34.65;30.52
45129;BME280;35512;56.312;101.728;2022-08-04T03:25:48;96043.72;;;35.13;30.53
45129;BME280;35512;56.312;101.728;2022-08-04T03:31:09;96042.31;;;34.61;28.97
45129;BME280;35512;56.312;101.728;2022-08-04T03:33:48;96042.34;;;34.23;29.74
45129;BME280;35512;56.312;101.728;2022-08-04T03:42:33;96030.44;;;27.87;33.80
45129;BME280;35512;56.312;101.728;2022-08-04T03:57:29;96023.72;;;21.17;41.65
45129;BME280;35512;56.312;101.728;2022-08-04T04:00:13;96013.75;;;20.84;42.45
45129;BME280;35512;56.312;101.728;2022-08-04T04:08:41;96011.22;;;21.03;43.34
45129;BME280;35512;56.312;101.728;2022-08-04T04:16:59;96012.06;;;22.27;42.77
45129;BME280;35512;56.312;101.728;2022-08-04T04:28:02;96005.78;;;23.67;40.99
45129;BME280;35512;56.312;101.728;2022-08-04T04:37:26;95999.34;;;23.61;40.67
45129;BME280;35512;56.312;101.728;2022-08-04T04:43:34;95991.50;;;22.72;41.48
45129;BME280;35512;56.312;101.728;2022-08-04T04:54:50;95989.75;;;24.36;40.61
45129;BME280;35512;56.312;101.728;2022-08-04T04:57:22;95990.31;;;24.50;39.31
45129;BME280;35512;56.312;101.728;2022-08-04T05:00:13;95987.06;;;24.08;40.02
45129;BME280;35512;56.312;101.728;2022-08-04T05:05:48;95979.25;;;27.20;38.97
45129;BME280;35512;56.312;101.728;2022-08-04T05:08:49;95987.75;;;30.44;36.40
45129;BME280;35512;56.312;101.728;2022-08-04T05:14:10;95978.88;;;33.30;32.56
45129;BME280;35512;56.312;101.728;2022-08-04T05:17:25;95977.06;;;30.88;31.58
45129;BME280;35512;56.312;101.728;2022-08-04T05:20:21;95975.06;;;28.82;34.16
45129;BME280;35512;56.312;101.728;2022-08-04T05:23:02;95970.09;;;29.47;33.45
45129;BME280;35512;56.312;101.728;2022-08-04T05:25:42;95967.09;;;31.32;31.25
45129;BME280;35512;56.312;101.728;2022-08-04T05:28:35;95968.13;;;31.23;30.29
45129;BME280;35512;56.312;101.728;2022-08-04T05:33:42;95969.41;;;31.22;32.07
45129;BME280;35512;56.312;101.728;2022-08-04T05:36:16;95971.31;;;32.69;30.53
45129;BME280;35512;56.312;101.728;2022-08-04T05:39:11;95967.53;;;34.82;30.44
45129;BME280;35512;56.312;101.728;2022-08-04T05:41:43;95962.19;;;36.63;29.40
45129;BME280;35512;56.312;101.728;2022-08-04T05:44:23;95965.00;;;37.94;28.17
45129;BME280;35512;56.312;101.728;2022-08-04T05:46:57;95959.06;;;39.05;27.08
45129;BME280;35512;56.312;101.728;2022-08-04T05:49:27;95971.50;;;38.64;25.56
45129;BME280;35512;56.312;101.728;2022-08-04T05:52:01;95953.41;;;36.45;27.09
45129;BME280;35512;56.312;101.728;2022-08-04T05:54:31;95954.09;;;35.82;27.99
45129;BME280;35512;56.312;101.728;2022-08-04T05:57:03;95960.31;;;35.14;28.51
45129;BME280;35512;56.312;101.728;2022-08-04T05:59:37;95945.88;;;34.50;27.43
45129;BME280;35512;56.312;101.728;2022-08-04T06:02:08;95947.13;;;33.27;28.04
45129;BME280;35512;56.312;101.728;2022-08-04T06:04:39;95951.22;;;31.04;28.48
45129;BME280;35512;56.312;101.728;2022-08-04T06:07:09;95954.41;;;28.95;30.09
45129;BME280;35512;56.312;101.728;2022-08-04T06:09:39;95943.63;;;27.54;31.50
45129;BME280;35512;56.312;101.728;2022-08-04T06:12:21;95936.59;;;26.11;32.76
45129;BME280;35512;56.312;101.728;2022-08-04T06:14:54;95933.00;;;25.26;34.05
45129;BME280;35512;56.312;101.728;2022-08-04T06:20:45;95937.53;;;24.66;35.10
45129;BME280;35512;56.312;101.728;2022-08-04T06:23:18;95936.91;;;24.95;35.02
45129;BME280;35512;56.312;101.728;2022-08-04T06:25:50;95934.09;;;25.83;34.58
45129;BME280;35512;56.312;101.728;2022-08-04T06:28:23;95931.59;;;26.80;33.64
45129;BME280;35512;56.312;101.728;2022-08-04T06:30:54;95940.94;;;28.82;33.19
45129;BME280;35512;56.312;101.728;2022-08-04T06:33:46;95933.94;;;32.12;31.13
45129;BME280;35512;56.312;101.728;2022-08-04T06:36:21;95924.47;;;34.80;29.94
45129;BME280;35512;56.312;101.728;2022-08-04T06:38:51;95930.00;;;36.29;28.28
45129;BME280;35512;56.312;101.728;2022-08-04T06:41:27;95928.63;;;36.86;26.62
45129;BME280;35512;56.312;101.728;2022-08-04T06:44:23;95927.44;;;37.47;26.38
45129;BME280;35512;56.312;101.728;2022-08-04T06:46:54;95929.34;;;38.12;25.71
45129;BME280;35512;56.312;101.728;2022-08-04T06:49:24;95930.84;;;38.67;25.41
45129;BME280;35512;56.312;101.728;2022-08-04T06:51:55;95919.22;;;38.78;24.69
45129;BME280;35512;56.312;101.728;2022-08-04T06:54:24;95921.69;;;38.74;24.71
45129;BME280;35512;56.312;101.728;2022-08-04T06:56:56;95923.94;;;38.76;23.26
45129;BME280;35512;56.312;101.728;2022-08-04T06:59:28;95910.97;;;38.49;22.40
45129;BME280;35512;56.312;101.728;2022-08-04T07:01:58;95906.06;;;38.50;23.21
45129;BME280;35512;56.312;101.728;2022-08-04T07:04:28;95912.28;;;38.79;22.99
45129;BME280;35512;56.312;101.728;2022-08-04T07:06:58;95913.41;;;39.40;22.50
45129;BME280;35512;56.312;101.728;2022-08-04T07:09:28;95913.66;;;39.75;21.74
45129;BME280;35512;56.312;101.728;2022-08-04T07:11:57;95910.53;;;39.55;21.96
45129;BME280;35512;56.312;101.728;2022-08-04T07:14:29;95911.56;;;39.35;22.43
45129;BME280;35512;56.312;101.728;2022-08-04T07:16:59;95908.50;;;39.48;21.97
45129;BME280;35512;56.312;101.728;2022-08-04T07:19:28;95907.91;;;37.41;23.38
45129;BME280;35512;56.312;101.728;2022-08-04T07:22:00;95902.47;;;35.72;24.57
45129;BME280;35512;56.312;101.728;2022-08-04T07:24:44;95903.47;;;35.61;25.00
45129;BME280;35512;56.312;101.728;2022-08-04T07:27:16;95903.41;;;35.88;23.89
45129;BME280;35512;56.312;101.728;2022-08-04T07:30:05;95906.00;;;36.99;24.09
45129;BME280;35512;56.312;101.728;2022-08-04T07:32:36;95909.38;;;37.86;21.84
45129;BME280;35512;56.312;101.728;2022-08-04T07:35:06;95912.56;;;35.88;22.01
45129;BME280;35512;56.312;101.728;2022-08-04T07:42:19;95898.25;;;34.18;23.44
45129;BME280;35512;56.312;101.728;2022-08-04T07:45:06;95869.75;;;33.68;24.11
45129;BME280;35512;56.312;101.728;2022-08-04T07:47:37;95901.97;;;32.07;25.09
45129;BME280;35512;56.312;101.728;2022-08-04T07:50:27;95887.00;;;29.94;26.94
45129;BME280;35512;56.312;101.728;2022-08-04T07:52:57;95891.53;;;30.14;27.59
45129;BME280;35512;56.312;101.728;2022-08-04T07:55:45;95891.88;;;31.98;26.47
45129;BME280;35512;56.312;101.728;2022-08-04T07:58:31;95895.13;;;33.13;25.05
45129;BME280;35512;56.312;101.728;2022-08-04T08:01:00;95891.22;;;33.22;24.18
45129;BME280;35512;56.312;101.728;2022-08-04T08:03:29;95875.69;;;31.55;25.03
45129;BME280;35512;56.312;101.728;2022-08-04T08:05:59;95884.94;;;30.06;26.66
45129;BME280;35512;56.312;101.728;2022-08-04T08:08:48;95889.47;;;28.55;28.10
45129;BME280;35512;56.312;101.728;2022-08-04T08:11:17;95888.75;;;27.38;29.58
45129;BME280;35512;56.312;101.728;2022-08-04T08:13:47;95878.84;;;26.34;30.48
45129;BME280;35512;56.312;101.728;2022-08-04T08:16:17;95874.81;;;25.30;31.92
45129;BME280;35512;56.312;101.728;2022-08-04T08:18:52;95888.53;;;24.52;32.92
45129;BME280;35512;56.312;101.728;2022-08-04T08:21:21;95881.91;;;23.73;34.26
45129;BME280;35512;56.312;101.728;2022-08-04T08:23:50;95887.47;;;23.17;35.34
45129;BME280;35512;56.312;101.728;2022-08-04T08:26:19;95872.72;;;22.83;35.65
45129;BME280;35512;56.312;101.728;2022-08-04T08:28:48;95880.22;;;22.83;35.94
45129;BME280;35512;56.312;101.728;2022-08-04T08:31:19;95872.41;;;22.62;36.25
45129;BME280;35512;56.312;101.728;2022-08-04T08:34:10;95874.78;;;22.42;36.51
45129;BME280;35512;56.312;101.728;2022-08-04T08:40:25;95866.53;;;21.48;37.60
45129;BME280;35512;56.312;101.728;2022-08-04T08:46:42;95868.63;;;21.21;38.79
45129;BME280;35512;56.312;101.728;2022-08-04T09:00:58;95848.19;;;21.22;40.10
45129;BME280;35512;56.312;101.728;2022-08-04T09:09:42;95855.66;;;21.22;40.05
45129;BME280;35512;56.312;101.728;2022-08-04T09:17:31;95850.22;;;21.09;40.75
45129;BME280;35512;56.312;101.728;2022-08-04T09:23:03;95849.53;;;21.18;40.76
45129;BME280;35512;56.312;101.728;2022-08-04T09:25:41;95851.72;;;21.23;40.58
45129;BME280;35512;56.312;101.728;2022-08-04T09:28:22;95858.03;;;21.10;40.66
45129;BME280;35512;56.312;101.728;2022-08-04T09:31:15;95863.75;;;21.03;40.89
45129;BME280;35512;56.312;101.728;2022-08-04T09:34:10;95864.03;;;21.18;40.94
45129;BME280;35512;56.312;101.728;2022-08-04T09:39:23;95855.34;;;21.42;41.19
45129;BME280;35512;56.312;101.728;2022-08-04T09:42:11;95852.66;;;21.29;41.30
45129;BME280;35512;56.312;101.728;2022-08-04T09:48:02;95857.25;;;21.32;41.41
45129;BME280;35512;56.312;101.728;2022-08-04T09:50:41;95854.31;;;21.26;41.54
45129;BME280;35512;56.312;101.728;2022-08-04T09:56:13;95859.16;;;21.00;42.34
45129;BME280;35512;56.312;101.728;2022-08-04T10:01:28;95865.91;;;20.86;42.88
45129;BME280;35512;56.312;101.728;2022-08-04T10:04:00;95863.84;;;20.77;43.08
45129;BME280;35512;56.312;101.728;2022-08-04T10:15:09;95867.50;;;20.49;44.24
45129;BME280;35512;56.312;101.728;2022-08-04T10:20:47;95861.19;;;20.26;44.96
45129;BME280;35512;56.312;101.728;2022-08-04T10:26:41;95867.97;;;20.08;45.00
45129;BME280;35512;56.312;101.728;2022-08-04T10:29:24;95858.09;;;19.98;45.42
45129;BME280;35512;56.312;101.728;2022-08-04T10:40:39;95858.56;;;19.54;46.40
45129;BME280;35512;56.312;101.728;2022-08-04T10:43:38;95851.41;;;19.44;46.78
45129;BME280;35512;56.312;101.728;2022-08-04T10:46:18;95848.81;;;19.40;46.95
45129;BME280;35512;56.312;101.728;2022-08-04T10:51:29;95847.25;;;19.27;47.79
45129;BME280;35512;56.312;101.728;2022-08-04T10:54:42;95850.28;;;19.16;47.75
45129;BME280;35512;56.312;101.728;2022-08-04T11:00:08;95846.66;;;18.89;48.72
45129;BME280;35512;56.312;101.728;2022-08-04T11:06:00;95843.75;;;18.64;49.58
45129;BME280;35512;56.312;101.728;2022-08-04T11:08:35;95831.22;;;18.50;49.91
45129;BME280;35512;56.312;101.728;2022-08-04T11:11:15;95831.16;;;18.53;49.78
45129;BME280;35512;56.312;101.728;2022-08-04T11:14:15;95835.84;;;18.53;49.90
45129;BME280;35512;56.312;101.728;2022-08-04T11:25:18;95821.28;;;17.90;51.91
45129;BME280;35512;56.312;101.728;2022-08-04T11:31:32;95824.41;;;17.92;51.90
45129;BME280;35512;56.312;101.728;2022-08-04T11:39:49;95814.59;;;17.95;52.40
45129;BME280;35512;56.312;101.728;2022-08-04T11:42:22;95818.00;;;17.99;52.46
45129;BME280;35512;56.312;101.728;2022-08-04T11:45:10;95822.28;;;18.00;52.87
45129;BME280;35512;56.312;101.728;2022-08-04T11:47:49;95812.13;;;18.00;52.76
45129;BME280;35512;56.312;101.728;2022-08-04T11:50:35;95821.06;;;18.01;52.97
45129;BME280;35512;56.312;101.728;2022-08-04T11:53:12;95817.22;;;17.98;53.06
45129;BME280;35512;56.312;101.728;2022-08-04T11:55:50;95813.41;;;17.96;53.35
45129;BME280;35512;56.312;101.728;2022-08-04T11:58:37;95815.34;;;17.95;53.26
45129;BME280;35512;56.312;101.728;2022-08-04T12:01:24;95811.22;;;17.87;53.46
45129;BME280;35512;56.312;101.728;2022-08-04T12:04:23;95812.81;;;17.84;53.65
45129;BME280;35512;56.312;101.728;2022-08-04T12:07:09;95813.75;;;17.78;53.85
45129;BME280;35512;56.312;101.728;2022-08-04T12:13:27;95820.22;;;17.51;54.37
45129;BME280;35512;56.312;101.728;2022-08-04T12:16:21;95816.16;;;17.39;54.65
45129;BME280;35512;56.312;101.728;2022-08-04T12:19:03;95821.41;;;17.30;54.94
45129;BME280;35512;56.312;101.728;2022-08-04T12:21:45;95815.81;;;17.17;55.26
45129;BME280;35512;56.312;101.728;2022-08-04T12:24:30;95812.25;;;17.00;55.55
45129;BME280;35512;56.312;101.728;2022-08-04T12:29:58;95817.50;;;16.67;56.06
45129;BME280;35512;56.312;101.728;2022-08-04T12:33:37;95815.81;;;16.53;56.16
45129;BME280;35512;56.312;101.728;2022-08-04T12:36:44;95818.28;;;16.44;56.41
45129;BME280;35512;56.312;101.728;2022-08-04T12:39:17;95813.59;;;16.44;56.48
45129;BME280;35512;56.312;101.728;2022-08-04T12:44:48;95819.47;;;16.43;57.00
45129;BME280;35512;56.312;101.728;2022-08-04T12:47:24;95826.19;;;16.38;57.24
45129;BME280;35512;56.312;101.728;2022-08-04T12:49:59;95837.06;;;16.38;57.50
45129;BME280;35512;56.312;101.728;2022-08-04T12:52:42;95834.41;;;16.34;57.73
45129;BME280;35512;56.312;101.728;2022-08-04T12:55:30;95841.06;;;16.33;57.86
45129;BME280;35512;56.312;101.728;2022-08-04T12:58:03;95841.56;;;16.25;58.28
45129;BME280;35512;56.312;101.728;2022-08-04T13:00:39;95843.53;;;16.24;58.36
45129;BME280;35512;56.312;101.728;2022-08-04T13:03:11;95849.03;;;16.20;58.68
45129;BME280;35512;56.312;101.728;2022-08-04T13:05:42;95848.69;;;16.18;58.99
45129;BME280;35512;56.312;101.728;2022-08-04T13:08:13;95847.19;;;16.14;59.25
45129;BME280;35512;56.312;101.728;2022-08-04T13:10:45;95848.84;;;16.08;59.52
45129;BME280;35512;56.312;101.728;2022-08-04T13:13:20;95850.06;;;16.03;59.60
45129;BME280;35512;56.312;101.728;2022-08-04T13:16:00;95849.34;;;15.99;59.71
45129;BME280;35512;56.312;101.728;2022-08-04T13:18:38;95854.88;;;15.95;59.96
45129;BME280;35512;56.312;101.728;2022-08-04T13:21:15;95851.44;;;15.91;60.04
45129;BME280;35512;56.312;101.728;2022-08-04T13:23:57;95852.28;;;15.84;60.17
45129;BME280;35512;56.312;101.728;2022-08-04T13:29:26;95855.47;;;15.76;60.50
45129;BME280;35512;56.312;101.728;2022-08-04T13:32:19;95857.84;;;15.74;60.47
45129;BME280;35512;56.312;101.728;2022-08-04T13:34:53;95856.34;;;15.69;60.83
45129;BME280;35512;56.312;101.728;2022-08-04T13:37:30;95864.50;;;15.69;60.70
45129;BME280;35512;56.312;101.728;2022-08-04T13:40:04;95861.78;;;15.69;60.66
45129;BME280;35512;56.312;101.728;2022-08-04T13:42:34;95865.31;;;15.69;61.03
45129;BME280;35512;56.312;101.728;2022-08-04T13:45:05;95863.03;;;15.64;61.34
45129;BME280;35512;56.312;101.728;2022-08-04T13:47:36;95860.75;;;15.59;61.23
45129;BME280;35512;56.312;101.728;2022-08-04T13:50:11;95877.53;;;15.54;61.18
45129;BME280;35512;56.312;101.728;2022-08-04T13:52:41;95877.34;;;15.37;61.42
45129;BME280;35512;56.312;101.728;2022-08-04T13:57:55;95867.63;;;15.02;61.27
45129;BME280;35512;56.312;101.728;2022-08-04T14:00:26;95878.44;;;15.09;61.48
45129;BME280;35512;56.312;101.728;2022-08-04T14:03:06;95878.50;;;15.06;61.64
45129;BME280;35512;56.312;101.728;2022-08-04T14:08:57;95866.09;;;15.01;61.46
45129;BME280;35512;56.312;101.728;2022-08-04T14:11:39;95870.78;;;14.97;61.45
45129;BME280;35512;56.312;101.728;2022-08-04T14:14:31;95862.38;;;14.87;61.52
45129;BME280;35512;56.312;101.728;2022-08-04T14:17:11;95864.72;;;14.85;61.04
45129;BME280;35512;56.312;101.728;2022-08-04T14:25:02;95852.75;;;14.79;60.94
45129;BME280;35512;56.312;101.728;2022-08-04T14:27:48;95839.19;;;14.76;61.00
45129;BME280;35512;56.312;101.728;2022-08-04T14:30:28;95841.50;;;14.77;60.93
45129;BME280;35512;56.312;101.728;2022-08-04T14:33:06;95850.47;;;14.74;60.81
45129;BME280;35512;56.312;101.728;2022-08-04T14:35:57;95854.78;;;14.68;60.83
45129;BME280;35512;56.312;101.728;2022-08-04T14:39:00;95842.47;;;14.52;60.61
45129;BME280;35512;56.312;101.728;2022-08-04T14:41:43;95853.38;;;14.49;60.97
45129;BME280;35512;56.312;101.728;2022-08-04T14:44:13;95857.72;;;14.39;60.90
45129;BME280;35512;56.312;101.728;2022-08-04T14:46:52;95857.03;;;14.28;60.96
45129;BME280;35512;56.312;101.728;2022-08-04T14:49:21;95859.78;;;14.20;61.27
45129;BME280;35512;56.312;101.728;2022-08-04T14:51:56;95861.47;;;14.07;61.43
45129;BME280;35512;56.312;101.728;2022-08-04T14:54:43;95853.75;;;13.98;61.35
45129;BME280;35512;56.312;101.728;2022-08-04T14:57:15;95841.81;;;13.85;61.80
45129;BME280;35512;56.312;101.728;2022-08-04T14:59:47;95840.75;;;13.72;61.86
45129;BME280;35512;56.312;101.728;2022-08-04T15:02:31;95847.75;;;13.65;61.97
45129;BME280;35512;56.312;101.728;2022-08-04T15:05:04;95848.56;;;13.59;62.27
45129;BME280;35512;56.312;101.728;2022-08-04T15:07:53;95845.88;;;13.55;62.02
45129;BME280;35512;56.312;101.728;2022-08-04T15:10:23;95840.47;;;13.48;62.39
45129;BME280;35512;56.312;101.728;2022-08-04T15:12:53;95848.66;;;13.41;62.65
45129;BME280;35512;56.312;101.728;2022-08-04T15:15:23;95843.25;;;13.33;62.47
45129;BME280;35512;56.312;101.728;2022-08-04T15:18:11;95840.19;;;13.21;63.00
45129;BME280;35512;56.312;101.728;2022-08-04T15:20:40;95847.97;;;13.18;62.96
45129;BME280;35512;56.312;101.728;2022-08-04T15:23:12;95833.25;;;13.12;63.01
45129;BME280;35512;56.312;101.728;2022-08-04T15:25:46;95830.94;;;13.14;63.07
45129;BME280;35512;56.312;101.728;2022-08-04T15:28:19;95823.91;;;13.21;63.41
45129;BME280;35512;56.312;101.728;2022-08-04T15:30:52;95817.75;;;13.20;62.90
45129;BME280;35512;56.312;101.728;2022-08-04T15:33:23;95818.91;;;13.19;63.05
45129;BME280;35512;56.312;101.728;2022-08-04T15:39:16;95822.84;;;13.00;63.66
45129;BME280;35512;56.312;101.728;2022-08-04T15:41:57;95822.91;;;12.82;63.84
45129;BME280;35512;56.312;101.728;2022-08-04T15:47:16;95817.94;;;12.48;64.22
45129;BME280;35512;56.312;101.728;2022-08-04T15:50:07;95806.34;;;12.37;64.79
45129;BME280;35512;56.312;101.728;2022-08-04T15:53:08;95802.88;;;12.29;65.03
45129;BME280;35512;56.312;101.728;2022-08-04T15:55:41;95797.47;;;12.22;64.71
45129;BME280;35512;56.312;101.728;2022-08-04T15:58:12;95798.63;;;12.17;64.69
45129;BME280;35512;56.312;101.728;2022-08-04T16:09:01;95812.94;;;11.96;65.37
45129;BME280;35512;56.312;101.728;2022-08-04T16:14:08;95806.72;;;11.92;65.48
45129;BME280;35512;56.312;101.728;2022-08-04T16:19:27;95802.81;;;11.82;65.99
45129;BME280;35512;56.312;101.728;2022-08-04T16:22:03;95800.91;;;11.79;66.03
45129;BME280;35512;56.312;101.728;2022-08-04T16:24:40;95812.88;;;11.71;65.77
45129;BME280;35512;56.312;101.728;2022-08-04T16:27:11;95817.13;;;11.64;66.30
45129;BME280;35512;56.312;101.728;2022-08-04T16:29:44;95805.50;;;11.57;66.51
45129;BME280;35512;56.312;101.728;2022-08-04T16:32:24;95803.59;;;11.54;66.28
45129;BME280;35512;56.312;101.728;2022-08-04T16:35:17;95803.59;;;11.54;66.54
45129;BME280;35512;56.312;101.728;2022-08-04T16:37:47;95802.81;;;11.57;66.25
45129;BME280;35512;56.312;101.728;2022-08-04T16:40:32;95804.38;;;11.65;66.60
45129;BME280;35512;56.312;101.728;2022-08-04T16:43:08;95797.41;;;11.64;66.34
45129;BME280;35512;56.312;101.728;2022-08-04T16:48:20;95814.81;;;11.66;66.39
45129;BME280;35512;56.312;101.728;2022-08-04T16:51:03;95815.56;;;11.60;66.48
45129;BME280;35512;56.312;101.728;2022-08-04T16:53:39;95808.59;;;11.48;66.60
45129;BME280;35512;56.312;101.728;2022-08-04T16:56:30;95816.72;;;11.48;66.79
45129;BME280;35512;56.312;101.728;2022-08-04T16:59:09;95818.63;;;11.47;66.90
45129;BME280;35512;56.312;101.728;2022-08-04T17:01:50;95820.94;;;11.49;66.85
45129;BME280;35512;56.312;101.728;2022-08-04T17:04:31;95813.22;;;11.51;67.19
45129;BME280;35512;56.312;101.728;2022-08-04T17:07:03;95814.00;;;11.52;67.15
45129;BME280;35512;56.312;101.728;2022-08-04T17:09:32;95805.88;;;11.52;66.88
45129;BME280;35512;56.312;101.728;2022-08-04T17:12:01;95812.06;;;11.48;66.99
45129;BME280;35512;56.312;101.728;2022-08-04T17:14:30;95814.38;;;11.43;67.25
45129;BME280;35512;56.312;101.728;2022-08-04T17:17:00;95813.59;;;11.39;67.42
45129;BME280;35512;56.312;101.728;2022-08-04T17:19:29;95801.22;;;11.38;67.52
45129;BME280;35512;56.312;101.728;2022-08-04T17:22:04;95800.44;;;11.33;67.75
45129;BME280;35512;56.312;101.728;2022-08-04T17:24:38;95799.28;;;11.31;67.99
45129;BME280;35512;56.312;101.728;2022-08-04T17:27:09;95793.44;;;11.22;68.03
45129;BME280;35512;56.312;101.728;2022-08-04T17:29:58;95798.13;;;11.25;68.24
45129;BME280;35512;56.312;101.728;2022-08-04T17:32:27;95800.38;;;11.19;68.19
45129;BME280;35512;56.312;101.728;2022-08-04T17:34:59;95800.78;;;11.21;68.24
45129;BME280;35512;56.312;101.728;2022-08-04T17:37:31;95802.69;;;11.21;68.21
45129;BME280;35512;56.312;101.728;2022-08-04T17:40:11;95805.41;;;11.17;67.97
45129;BME280;35512;56.312;101.728;2022-08-04T17:43:05;95800.38;;;11.15;68.57
45129;BME280;35512;56.312;101.728;2022-08-04T17:46:17;95807.31;;;11.16;68.74
45129;BME280;35512;56.312;101.728;2022-08-04T17:51:49;95798.06;;;11.14;68.49
45129;BME280;35512;56.312;101.728;2022-08-04T17:54:39;95796.13;;;11.11;68.41
45129;BME280;35512;56.312;101.728;2022-08-04T17:57:18;95801.91;;;11.09;68.78
45129;BME280;35512;56.312;101.728;2022-08-04T17:59:56;95801.13;;;11.12;68.61
45129;BME280;35512;56.312;101.728;2022-08-04T18:02:29;95795.72;;;11.12;68.70
45129;BME280;35512;56.312;101.728;2022-08-04T18:05:02;95795.72;;;11.12;69.01
45129;BME280;35512;56.312;101.728;2022-08-04T18:07:51;95791.47;;;11.08;69.07
45129;BME280;35512;56.312;101.728;2022-08-04T18:10:42;95786.47;;;11.10;68.83